Impacts TAF Board
For situational awareness. Not to be used for flight planning purposes.
IDs:

KRIL - Rifle/Garfield Cnty, CO, US

Issued at 1727 UTC 01 Feb 2023
Updated at 2138 UTC 01 Feb 2023
Potential Impact None Slight Moderate High
Time2053Z 01/22Z 01/23Z 02/00Z 02/01Z 02/02Z 02/03Z 02/04Z 02/05Z 02/06Z 02/07Z 02/08Z 02/09Z 02/10Z>>
Type OBS PRVL PRVL PRVL PRVL PRVL PRVL PRVL PRVL PRVL PRVL PRVL PRVL PRVL
VIS 10 >6 >6 >6 >6 >6 >6 >6 >6 >6 >6 >6 >6 >6
CIG -- -- -- -- -- -- -- -- -- -- -- -- -- --
Cover CLR SKC SKC SKC SKC FEW FEW FEW FEW FEW FEW FEW FEW FEW
FltCat VFR VFR VFR VFR VFR VFR VFR VFR VFR VFR VFR VFR VFR VFR
WX -- -- -- -- -- -- -- -- -- -- -- -- -- --
WDir VRB VRB VRB VRB VRB 150 150 150 150 150 150 150 150 150
WSpd 0 4 4 4 4 5 5 5 5 5 5 5 5 5
WGst -- -- -- -- -- -- -- -- -- -- -- -- -- --
WSHgt -- -- -- -- -- -- -- -- -- -- -- -- -- --
WSDir -- -- -- -- -- -- -- -- -- -- -- -- -- --
WSSpd -- -- -- -- -- -- -- -- -- -- -- -- -- --
R08/26
XWnd VRB VRB VRB VRB VRB -4 -4 -4 -4 -4 -4 -4 -4 -4
HWnd VRB VRB VRB VRB VRB 2 2 2 2 2 2 2 2 2

NOTE: LAMP data beyond the time of the TAF data is denoted as LAMP in Type and colored magenta.

Raw TAF
KRIL 011727Z 0118/0218 VRB04KT P6SM SKC
  FM020200 15005KT P6SM FEW080


Raw METAR
KRIL 012053Z AUTO 00000KT 10SM CLR M04/M14 A3024 RMK AO2 SLP309 T10391144 56030
KRIL 011953Z AUTO 14004KT 10SM CLR M06/M14 A3026 RMK AO2 SLP318 T10561144
KRIL 011853Z AUTO 12004KT 10SM CLR M08/M15 A3030 RMK AO2 SLP338 T10781150

METAR Board
Radar Display
Forecast Discussion

For situational awareness. Not to be used for flight planning purposes.